METAR Data
IDs: Format: Raw Decoded Include TAF

Data at: 0216 UTC 23 Apr 2021

YESP 230200Z AUTO 01010KT 9999 // NCD 19/13 Q1024
YESP 230100Z AUTO 01011KT 9999 // NCD 16/13 Q1024
YESP 230000Z AUTO 36011KT 9999 // NCD 13/13 Q1024
YESP 222300Z AUTO 01011KT 9999 // NCD 12/11 Q1024
YESP 222200Z AUTO 01009KT 9999 // NCD 12/11 Q1024
YESP 222100Z AUTO 02007KT 9999 // NCD 12/11 Q1024
YESP 222000Z AUTO 01007KT 9999 // NCD 12/11 Q1024
YESP 221900Z AUTO 02007KT 9999 // NCD 12/11 Q1024
YESP 221800Z AUTO 01006KT 9999 // NCD 12/11 Q1025
YESP 221700Z AUTO 02005KT 9999 // NCD 12/11 Q1025
YESP 221600Z AUTO 36004KT 9999 // NCD 13/11 Q1025
YESP 221500Z AUTO 03005KT 9999 // NCD 13/12 Q1025
YESP 221400Z AUTO 06005KT 9999 // NCD 14/12 Q1025
YESP 221300Z AUTO 05007KT 9999 // NCD 14/13 Q1025
YESP 221200Z AUTO 09006KT 9999 // NCD 13/13 Q1026
YESP 221100Z AUTO 14007KT 9999 // NCD 14/13 Q1025
YESP 221000Z AUTO 12009KT 9999 // NCD 15/13 Q1025
YESP 220900Z AUTO 14008KT 9999 // OVC038 16/13 Q1024
YESP 220800Z AUTO 15009KT 9999 // OVC038 17/13 Q1024
YESP 220700Z AUTO 18012KT 9999 // OVC038 17/13 Q1024
YESP 220600Z AUTO 15005KT 120V180 9999 // OVC036 18/12 Q1024
YESP 220500Z AUTO 16005KT 9999 // OVC034 17/11 Q1025
YESP 220400Z AUTO 17002KT 9999 // OVC036 18/11 Q1025
YESP 220300Z AUTO 16003KT 9999 // OVC036 18/11 Q1026
YESP 220200Z AUTO 23002KT 9999 // BKN029 OVC035 17/11 Q1027
YESP 220100Z AUTO 28006KT 9999 // OVC037 16/12 Q1027
YESP 220000Z AUTO 28003KT 9999 // OVC033 15/12 Q1027
YESP 212300Z AUTO 00000KT 9999 // OVC033 14/12 Q1025
YESP 212200Z AUTO 00000KT 9999 // OVC031 14/12 Q1025
YESP 212100Z AUTO 26003KT 9999 // OVC035 14/13 Q1025
YESP 212000Z AUTO 25002KT 9999 // OVC039 14/13 Q1025
YESP 211900Z AUTO 25003KT 9999 // OVC041 14/13 Q1025
YESP 211800Z AUTO 26004KT 9999 // OVC041 14/13 Q1025
YESP 211700Z AUTO 25004KT 9999 // SCT027 OVC043 15/14 Q1026
YESP 211600Z AUTO 23004KT 9999 // SCT022 BKN034 OVC041 15/14 Q1026
YESP 211500Z AUTO 23002KT 9999 // BKN018 OVC042 15/14 Q1026